sensor_id;sensor_type;location;lat;lon;timestamp;temperature;humidity
37086;DHT22;23001;45.952;12.676;2023-05-14T00:00:41;12.10;99.90
37086;DHT22;23001;45.952;12.676;2023-05-14T00:03:09;12.10;99.90
37086;DHT22;23001;45.952;12.676;2023-05-14T00:05:35;12.00;99.90
37086;DHT22;23001;45.952;12.676;2023-05-14T00:08:01;12.10;99.90
37086;DHT22;23001;45.952;12.676;2023-05-14T00:10:26;12.00;99.90
37086;DHT22;23001;45.952;12.676;2023-05-14T00:13:39;12.10;99.90
37086;DHT22;23001;45.952;12.676;2023-05-14T00:15:58;12.10;99.90
37086;DHT22;23001;45.952;12.676;2023-05-14T00:18:26;12.20;99.90
37086;DHT22;23001;45.952;12.676;2023-05-14T00:57:43;12.10;99.90
37086;DHT22;23001;45.952;12.676;2023-05-14T01:00:09;12.20;99.90
37086;DHT22;23001;45.952;12.676;2023-05-14T01:02:35;12.20;99.90
37086;DHT22;23001;45.952;12.676;2023-05-14T01:05:03;12.30;99.90
37086;DHT22;23001;45.952;12.676;2023-05-14T01:10:41;12.20;99.90
37086;DHT22;23001;45.952;12.676;2023-05-14T01:16:57;12.20;99.90
37086;DHT22;23001;45.952;12.676;2023-05-14T01:31:29;12.10;99.90
37086;DHT22;23001;45.952;12.676;2023-05-14T01:33:56;12.20;99.90
37086;DHT22;23001;45.952;12.676;2023-05-14T01:36:24;12.20;99.90
37086;DHT22;23001;45.952;12.676;2023-05-14T01:39:08;12.20;99.90
37086;DHT22;23001;45.952;12.676;2023-05-14T01:41:51;12.30;99.90
37086;DHT22;23001;45.952;12.676;2023-05-14T01:44:24;12.20;99.90
37086;DHT22;23001;45.952;12.676;2023-05-14T01:50:18;12.20;99.90
37086;DHT22;23001;45.952;12.676;2023-05-14T02:08:45;12.40;99.90
37086;DHT22;23001;45.952;12.676;2023-05-14T02:11:14;12.40;99.90
37086;DHT22;23001;45.952;12.676;2023-05-14T02:28:53;12.30;99.90
37086;DHT22;23001;45.952;12.676;2023-05-14T02:31:19;12.40;99.90
37086;DHT22;23001;45.952;12.676;2023-05-14T02:33:57;12.40;99.90
37086;DHT22;23001;45.952;12.676;2023-05-14T02:36:28;12.50;99.90
37086;DHT22;23001;45.952;12.676;2023-05-14T02:39:02;12.50;99.90
37086;DHT22;23001;45.952;12.676;2023-05-14T02:41:54;12.40;99.90
37086;DHT22;23001;45.952;12.676;2023-05-14T02:44:20;12.30;99.90
37086;DHT22;23001;45.952;12.676;2023-05-14T02:46:46;12.30;99.90
37086;DHT22;23001;45.952;12.676;2023-05-14T02:49:12;12.30;99.90
37086;DHT22;23001;45.952;12.676;2023-05-14T02:51:50;12.40;99.90
37086;DHT22;23001;45.952;12.676;2023-05-14T03:29:45;12.50;99.90
37086;DHT22;23001;45.952;12.676;2023-05-14T03:35:42;12.50;99.90
37086;DHT22;23001;45.952;12.676;2023-05-14T03:38:11;12.40;99.90
37086;DHT22;23001;45.952;12.676;2023-05-14T03:40:37;12.50;99.90
37086;DHT22;23001;45.952;12.676;2023-05-14T03:43:03;12.50;99.90
37086;DHT22;23001;45.952;12.676;2023-05-14T03:45:31;12.50;99.90
37086;DHT22;23001;45.952;12.676;2023-05-14T03:48:06;12.50;99.90
37086;DHT22;23001;45.952;12.676;2023-05-14T03:50:37;12.50;99.90
37086;DHT22;23001;45.952;12.676;2023-05-14T03:53:03;12.40;99.90
37086;DHT22;23001;45.952;12.676;2023-05-14T03:55:34;12.40;99.90
37086;DHT22;23001;45.952;12.676;2023-05-14T03:58:04;12.40;99.90
37086;DHT22;23001;45.952;12.676;2023-05-14T04:00:41;12.40;99.90
37086;DHT22;23001;45.952;12.676;2023-05-14T04:03:12;12.40;99.90
37086;DHT22;23001;45.952;12.676;2023-05-14T04:05:38;12.40;99.90
37086;DHT22;23001;45.952;12.676;2023-05-14T04:08:03;12.40;99.90
37086;DHT22;23001;45.952;12.676;2023-05-14T04:10:29;12.40;99.90
37086;DHT22;23001;45.952;12.676;2023-05-14T04:13:07;12.40;99.90
37086;DHT22;23001;45.952;12.676;2023-05-14T04:15:36;12.40;99.90
37086;DHT22;23001;45.952;12.676;2023-05-14T04:18:12;12.50;99.90
37086;DHT22;23001;45.952;12.676;2023-05-14T04:23:46;12.50;99.90
37086;DHT22;23001;45.952;12.676;2023-05-14T04:26:36;12.50;99.90
37086;DHT22;23001;45.952;12.676;2023-05-14T04:29:07;12.60;99.90
37086;DHT22;23001;45.952;12.676;2023-05-14T04:31:54;12.60;99.90
37086;DHT22;23001;45.952;12.676;2023-05-14T04:37:08;12.60;99.90
37086;DHT22;23001;45.952;12.676;2023-05-14T04:39:35;12.60;99.90
37086;DHT22;23001;45.952;12.676;2023-05-14T04:42:13;12.60;99.90
37086;DHT22;23001;45.952;12.676;2023-05-14T04:44:39;12.60;99.90
37086;DHT22;23001;45.952;12.676;2023-05-14T04:48:04;12.50;99.90
37086;DHT22;23001;45.952;12.676;2023-05-14T04:50:11;12.60;99.90
37086;DHT22;23001;45.952;12.676;2023-05-14T04:52:46;12.50;99.90
37086;DHT22;23001;45.952;12.676;2023-05-14T04:55:12;12.50;99.90
37086;DHT22;23001;45.952;12.676;2023-05-14T05:00:19;12.60;99.90
37086;DHT22;23001;45.952;12.676;2023-05-14T05:02:48;12.60;99.90
37086;DHT22;23001;45.952;12.676;2023-05-14T05:05:14;12.60;99.90
37086;DHT22;23001;45.952;12.676;2023-05-14T05:10:29;12.70;99.90
37086;DHT22;23001;45.952;12.676;2023-05-14T05:12:55;12.70;99.90
37086;DHT22;23001;45.952;12.676;2023-05-14T05:15:32;12.80;99.90
37086;DHT22;23001;45.952;12.676;2023-05-14T05:18:18;12.80;99.90
37086;DHT22;23001;45.952;12.676;2023-05-14T05:20:55;12.80;99.90
37086;DHT22;23001;45.952;12.676;2023-05-14T05:26:07;12.90;99.90
37086;DHT22;23001;45.952;12.676;2023-05-14T05:28:33;13.00;99.90
37086;DHT22;23001;45.952;12.676;2023-05-14T05:31:01;12.90;99.90
37086;DHT22;23001;45.952;12.676;2023-05-14T05:33:36;13.00;99.90
37086;DHT22;23001;45.952;12.676;2023-05-14T05:36:04;13.00;99.90
37086;DHT22;23001;45.952;12.676;2023-05-14T05:42:18;12.90;99.90
37086;DHT22;23001;45.952;12.676;2023-05-14T05:44:45;12.90;99.90
37086;DHT22;23001;45.952;12.676;2023-05-14T05:47:11;12.90;99.90
37086;DHT22;23001;45.952;12.676;2023-05-14T05:49:39;12.90;99.90
37086;DHT22;23001;45.952;12.676;2023-05-14T05:52:05;13.00;99.90
37086;DHT22;23001;45.952;12.676;2023-05-14T05:54:31;13.00;99.90
37086;DHT22;23001;45.952;12.676;2023-05-14T05:57:04;13.00;99.90
37086;DHT22;23001;45.952;12.676;2023-05-14T06:11:35;13.60;99.90
37086;DHT22;23001;45.952;12.676;2023-05-14T06:14:07;13.70;99.90
37086;DHT22;23001;45.952;12.676;2023-05-14T06:16:41;13.90;99.90
37086;DHT22;23001;45.952;12.676;2023-05-14T06:19:10;13.90;99.90
37086;DHT22;23001;45.952;12.676;2023-05-14T06:21:39;14.00;99.90
37086;DHT22;23001;45.952;12.676;2023-05-14T06:24:05;14.20;99.90
37086;DHT22;23001;45.952;12.676;2023-05-14T06:33:08;14.70;99.90
37086;DHT22;23001;45.952;12.676;2023-05-14T06:35:34;15.00;99.90
37086;DHT22;23001;45.952;12.676;2023-05-14T06:41:16;15.30;99.90
37086;DHT22;23001;45.952;12.676;2023-05-14T06:44:10;15.30;99.90
37086;DHT22;23001;45.952;12.676;2023-05-14T06:46:41;15.40;99.90
37086;DHT22;23001;45.952;12.676;2023-05-14T06:51:45;15.30;99.90
37086;DHT22;23001;45.952;12.676;2023-05-14T06:54:22;15.20;99.90
37086;DHT22;23001;45.952;12.676;2023-05-14T06:56:47;15.20;99.90
37086;DHT22;23001;45.952;12.676;2023-05-14T06:59:16;15.30;99.90
37086;DHT22;23001;45.952;12.676;2023-05-14T07:01:42;15.30;99.90
37086;DHT22;23001;45.952;12.676;2023-05-14T07:04:08;15.30;99.90
37086;DHT22;23001;45.952;12.676;2023-05-14T07:06:36;15.30;99.90
37086;DHT22;23001;45.952;12.676;2023-05-14T07:09:05;15.20;99.90
37086;DHT22;23001;45.952;12.676;2023-05-14T07:11:31;15.10;99.90
37086;DHT22;23001;45.952;12.676;2023-05-14T07:14:07;15.00;99.90
37086;DHT22;23001;45.952;12.676;2023-05-14T07:16:35;15.00;99.90
37086;DHT22;23001;45.952;12.676;2023-05-14T07:19:04;14.90;99.90
37086;DHT22;23001;45.952;12.676;2023-05-14T07:21:29;14.90;99.90
37086;DHT22;23001;45.952;12.676;2023-05-14T07:23:56;14.90;99.90
37086;DHT22;23001;45.952;12.676;2023-05-14T07:26:21;15.00;99.90
37086;DHT22;23001;45.952;12.676;2023-05-14T07:28:48;15.00;99.90
37086;DHT22;23001;45.952;12.676;2023-05-14T07:34:25;14.90;99.90
37086;DHT22;23001;45.952;12.676;2023-05-14T07:36:50;14.90;99.90
37086;DHT22;23001;45.952;12.676;2023-05-14T07:39:16;15.00;99.90
37086;DHT22;23001;45.952;12.676;2023-05-14T07:41:44;15.00;99.90
37086;DHT22;23001;45.952;12.676;2023-05-14T07:44:10;14.90;99.90
37086;DHT22;23001;45.952;12.676;2023-05-14T07:46:41;15.00;99.90
37086;DHT22;23001;45.952;12.676;2023-05-14T07:49:06;15.10;99.90
37086;DHT22;23001;45.952;12.676;2023-05-14T07:51:32;15.10;99.90
37086;DHT22;23001;45.952;12.676;2023-05-14T07:53:58;15.10;99.90
37086;DHT22;23001;45.952;12.676;2023-05-14T07:56:24;15.10;99.90
37086;DHT22;23001;45.952;12.676;2023-05-14T07:58:50;15.00;99.90
37086;DHT22;23001;45.952;12.676;2023-05-14T08:01:16;15.00;99.90
37086;DHT22;23001;45.952;12.676;2023-05-14T08:06:43;15.00;99.90
37086;DHT22;23001;45.952;12.676;2023-05-14T08:15:22;14.80;99.90
37086;DHT22;23001;45.952;12.676;2023-05-14T08:17:54;14.70;99.90
37086;DHT22;23001;45.952;12.676;2023-05-14T08:20:39;14.70;99.90
37086;DHT22;23001;45.952;12.676;2023-05-14T08:25:46;14.70;99.90
37086;DHT22;23001;45.952;12.676;2023-05-14T08:28:12;14.80;99.90
37086;DHT22;23001;45.952;12.676;2023-05-14T08:30:38;14.80;99.90
37086;DHT22;23001;45.952;12.676;2023-05-14T08:33:03;14.80;99.90
37086;DHT22;23001;45.952;12.676;2023-05-14T08:35:29;14.80;99.90
37086;DHT22;23001;45.952;12.676;2023-05-14T08:37:58;14.80;99.90
37086;DHT22;23001;45.952;12.676;2023-05-14T08:40:23;14.80;99.90
37086;DHT22;23001;45.952;12.676;2023-05-14T08:42:50;14.90;99.90
37086;DHT22;23001;45.952;12.676;2023-05-14T08:45:17;14.90;99.90
37086;DHT22;23001;45.952;12.676;2023-05-14T08:50:45;14.90;99.90
37086;DHT22;23001;45.952;12.676;2023-05-14T08:53:14;14.80;99.90
37086;DHT22;23001;45.952;12.676;2023-05-14T08:55:40;14.80;99.90
37086;DHT22;23001;45.952;12.676;2023-05-14T08:58:09;14.70;99.90
37086;DHT22;23001;45.952;12.676;2023-05-14T09:00:34;14.70;99.90
37086;DHT22;23001;45.952;12.676;2023-05-14T09:03:08;14.70;99.90
37086;DHT22;23001;45.952;12.676;2023-05-14T09:05:42;14.80;99.90
37086;DHT22;23001;45.952;12.676;2023-05-14T09:08:14;14.80;99.90
37086;DHT22;23001;45.952;12.676;2023-05-14T09:10:40;14.90;99.90
37086;DHT22;23001;45.952;12.676;2023-05-14T09:13:11;15.00;99.90
37086;DHT22;23001;45.952;12.676;2023-05-14T09:15:37;15.10;99.90
37086;DHT22;23001;45.952;12.676;2023-05-14T09:18:13;15.10;99.90
37086;DHT22;23001;45.952;12.676;2023-05-14T09:20:39;15.10;99.90
37086;DHT22;23001;45.952;12.676;2023-05-14T09:23:11;15.10;99.90
37086;DHT22;23001;45.952;12.676;2023-05-14T09:26:21;15.10;99.90
37086;DHT22;23001;45.952;12.676;2023-05-14T09:34:36;14.80;99.90
37086;DHT22;23001;45.952;12.676;2023-05-14T09:37:20;14.80;99.90
37086;DHT22;23001;45.952;12.676;2023-05-14T09:39:50;14.80;99.90
37086;DHT22;23001;45.952;12.676;2023-05-14T09:42:51;14.70;99.90
37086;DHT22;23001;45.952;12.676;2023-05-14T09:45:17;14.70;99.90
37086;DHT22;23001;45.952;12.676;2023-05-14T09:47:42;14.70;99.90
37086;DHT22;23001;45.952;12.676;2023-05-14T10:00:13;14.70;99.90
37086;DHT22;23001;45.952;12.676;2023-05-14T10:02:36;14.60;99.90
37086;DHT22;23001;45.952;12.676;2023-05-14T10:05:21;14.60;99.90
37086;DHT22;23001;45.952;12.676;2023-05-14T10:07:47;14.70;99.90
37086;DHT22;23001;45.952;12.676;2023-05-14T10:10:19;14.70;99.90
37086;DHT22;23001;45.952;12.676;2023-05-14T10:12:50;14.60;99.90
37086;DHT22;23001;45.952;12.676;2023-05-14T10:15:18;14.60;99.90
37086;DHT22;23001;45.952;12.676;2023-05-14T10:17:46;14.60;99.90
37086;DHT22;23001;45.952;12.676;2023-05-14T10:20:14;14.60;99.90
37086;DHT22;23001;45.952;12.676;2023-05-14T10:22:44;14.60;99.90
37086;DHT22;23001;45.952;12.676;2023-05-14T10:25:10;14.50;99.90
37086;DHT22;23001;45.952;12.676;2023-05-14T10:27:36;14.50;99.90
37086;DHT22;23001;45.952;12.676;2023-05-14T10:30:04;14.50;99.90
37086;DHT22;23001;45.952;12.676;2023-05-14T10:32:36;14.40;99.90
37086;DHT22;23001;45.952;12.676;2023-05-14T10:35:22;14.30;99.90
37086;DHT22;23001;45.952;12.676;2023-05-14T10:37:49;14.20;99.90
37086;DHT22;23001;45.952;12.676;2023-05-14T10:40:15;14.20;99.90
37086;DHT22;23001;45.952;12.676;2023-05-14T10:42:42;14.20;99.90
37086;DHT22;23001;45.952;12.676;2023-05-14T10:45:11;14.10;99.90
37086;DHT22;23001;45.952;12.676;2023-05-14T10:47:38;14.10;99.90
37086;DHT22;23001;45.952;12.676;2023-05-14T10:50:05;14.20;99.90
37086;DHT22;23001;45.952;12.676;2023-05-14T10:52:31;14.30;99.90
37086;DHT22;23001;45.952;12.676;2023-05-14T10:54:58;14.30;99.90
37086;DHT22;23001;45.952;12.676;2023-05-14T10:57:26;14.40;99.90
37086;DHT22;23001;45.952;12.676;2023-05-14T10:59:52;14.40;99.90
37086;DHT22;23001;45.952;12.676;2023-05-14T11:02:24;14.40;99.90
37086;DHT22;23001;45.952;12.676;2023-05-14T11:04:54;14.40;99.90
37086;DHT22;23001;45.952;12.676;2023-05-14T11:07:23;14.40;99.90
37086;DHT22;23001;45.952;12.676;2023-05-14T11:09:49;14.40;99.90
37086;DHT22;23001;45.952;12.676;2023-05-14T11:12:15;14.50;99.90
37086;DHT22;23001;45.952;12.676;2023-05-14T11:14:41;14.50;99.90
37086;DHT22;23001;45.952;12.676;2023-05-14T11:17:07;14.50;99.90
37086;DHT22;23001;45.952;12.676;2023-05-14T11:19:33;14.50;99.90
37086;DHT22;23001;45.952;12.676;2023-05-14T11:21:58;14.50;99.90
37086;DHT22;23001;45.952;12.676;2023-05-14T11:24:25;14.40;99.90
37086;DHT22;23001;45.952;12.676;2023-05-14T11:26:51;14.40;99.90
37086;DHT22;23001;45.952;12.676;2023-05-14T11:29:17;14.40;99.90
37086;DHT22;23001;45.952;12.676;2023-05-14T11:31:42;14.30;99.90
37086;DHT22;23001;45.952;12.676;2023-05-14T11:34:08;14.30;99.90
37086;DHT22;23001;45.952;12.676;2023-05-14T11:36:35;14.40;99.90
37086;DHT22;23001;45.952;12.676;2023-05-14T11:39:00;14.40;99.90
37086;DHT22;23001;45.952;12.676;2023-05-14T11:41:26;14.30;99.90
37086;DHT22;23001;45.952;12.676;2023-05-14T11:43:52;14.40;99.90
37086;DHT22;23001;45.952;12.676;2023-05-14T11:46:18;14.40;99.90
37086;DHT22;23001;45.952;12.676;2023-05-14T11:48:43;14.40;99.90
37086;DHT22;23001;45.952;12.676;2023-05-14T11:51:09;14.40;99.90
37086;DHT22;23001;45.952;12.676;2023-05-14T11:53:35;14.40;99.90
37086;DHT22;23001;45.952;12.676;2023-05-14T11:56:01;14.40;99.90
37086;DHT22;23001;45.952;12.676;2023-05-14T11:58:30;14.40;99.90
37086;DHT22;23001;45.952;12.676;2023-05-14T12:00:56;14.40;99.90
37086;DHT22;23001;45.952;12.676;2023-05-14T12:03:22;14.50;99.90
37086;DHT22;23001;45.952;12.676;2023-05-14T12:08:23;14.60;99.90
37086;DHT22;23001;45.952;12.676;2023-05-14T12:10:51;14.50;99.90
37086;DHT22;23001;45.952;12.676;2023-05-14T12:13:20;14.70;99.90
37086;DHT22;23001;45.952;12.676;2023-05-14T12:18:50;14.80;99.90
37086;DHT22;23001;45.952;12.676;2023-05-14T12:21:15;15.00;99.90
37086;DHT22;23001;45.952;12.676;2023-05-14T12:23:41;15.00;99.90
37086;DHT22;23001;45.952;12.676;2023-05-14T12:26:07;15.20;99.90
37086;DHT22;23001;45.952;12.676;2023-05-14T12:28:33;15.40;99.90
37086;DHT22;23001;45.952;12.676;2023-05-14T12:30:59;15.60;99.90
37086;DHT22;23001;45.952;12.676;2023-05-14T12:34:07;15.80;99.90
37086;DHT22;23001;45.952;12.676;2023-05-14T12:36:19;16.00;99.90
37086;DHT22;23001;45.952;12.676;2023-05-14T12:42:05;16.10;99.90
37086;DHT22;23001;45.952;12.676;2023-05-14T12:44:34;16.10;99.90
37086;DHT22;23001;45.952;12.676;2023-05-14T12:47:02;16.00;99.90
37086;DHT22;23001;45.952;12.676;2023-05-14T12:49:36;16.00;99.90
37086;DHT22;23001;45.952;12.676;2023-05-14T12:52:01;16.10;99.90
37086;DHT22;23001;45.952;12.676;2023-05-14T12:54:27;16.10;99.90
37086;DHT22;23001;45.952;12.676;2023-05-14T12:56:53;16.20;99.90
37086;DHT22;23001;45.952;12.676;2023-05-14T12:59:19;16.30;99.90
37086;DHT22;23001;45.952;12.676;2023-05-14T13:01:45;16.20;99.90
37086;DHT22;23001;45.952;12.676;2023-05-14T13:04:13;16.00;99.90
37086;DHT22;23001;45.952;12.676;2023-05-14T13:06:39;15.80;99.90
37086;DHT22;23001;45.952;12.676;2023-05-14T13:09:05;15.80;99.90
37086;DHT22;23001;45.952;12.676;2023-05-14T13:11:31;15.60;99.90
37086;DHT22;23001;45.952;12.676;2023-05-14T13:13:58;15.50;99.90
37086;DHT22;23001;45.952;12.676;2023-05-14T13:16:27;15.40;99.90
37086;DHT22;23001;45.952;12.676;2023-05-14T13:18:56;15.40;99.90
37086;DHT22;23001;45.952;12.676;2023-05-14T13:21:21;15.50;99.90
37086;DHT22;23001;45.952;12.676;2023-05-14T13:23:59;15.50;99.90
37086;DHT22;23001;45.952;12.676;2023-05-14T13:29:40;15.40;99.90
37086;DHT22;23001;45.952;12.676;2023-05-14T13:32:09;15.40;99.90
37086;DHT22;23001;45.952;12.676;2023-05-14T13:34:34;15.40;99.90
37086;DHT22;23001;45.952;12.676;2023-05-14T13:37:00;15.30;99.90
37086;DHT22;23001;45.952;12.676;2023-05-14T13:42:29;15.30;99.90
37086;DHT22;23001;45.952;12.676;2023-05-14T13:44:56;15.30;99.90
37086;DHT22;23001;45.952;12.676;2023-05-14T13:47:21;15.40;99.90
37086;DHT22;23001;45.952;12.676;2023-05-14T13:49:56;15.50;99.90
37086;DHT22;23001;45.952;12.676;2023-05-14T13:52:22;15.60;99.90
37086;DHT22;23001;45.952;12.676;2023-05-14T13:54:48;15.60;99.90
37086;DHT22;23001;45.952;12.676;2023-05-14T13:57:37;15.70;99.90
37086;DHT22;23001;45.952;12.676;2023-05-14T14:00:04;15.60;99.90
37086;DHT22;23001;45.952;12.676;2023-05-14T14:05:34;15.70;99.90
37086;DHT22;23001;45.952;12.676;2023-05-14T14:08:02;15.70;99.90
37086;DHT22;23001;45.952;12.676;2023-05-14T14:10:28;15.80;99.90
37086;DHT22;23001;45.952;12.676;2023-05-14T14:12:53;15.80;99.90
37086;DHT22;23001;45.952;12.676;2023-05-14T14:15:19;15.90;99.90
37086;DHT22;23001;45.952;12.676;2023-05-14T14:20:39;15.80;99.90
37086;DHT22;23001;45.952;12.676;2023-05-14T14:23:04;15.90;99.90
37086;DHT22;23001;45.952;12.676;2023-05-14T14:25:36;15.90;99.90
37086;DHT22;23001;45.952;12.676;2023-05-14T14:28:04;15.80;99.90
37086;DHT22;23001;45.952;12.676;2023-05-14T14:30:30;15.60;99.90
37086;DHT22;23001;45.952;12.676;2023-05-14T14:35:32;15.60;99.90
37086;DHT22;23001;45.952;12.676;2023-05-14T14:37:59;15.60;99.90
37086;DHT22;23001;45.952;12.676;2023-05-14T14:40:25;15.50;99.90
37086;DHT22;23001;45.952;12.676;2023-05-14T14:42:50;15.50;99.90
37086;DHT22;23001;45.952;12.676;2023-05-14T14:45:16;15.60;99.90
37086;DHT22;23001;45.952;12.676;2023-05-14T14:47:42;15.60;99.90
37086;DHT22;23001;45.952;12.676;2023-05-14T14:50:09;15.50;99.90
37086;DHT22;23001;45.952;12.676;2023-05-14T14:52:34;15.40;99.90
37086;DHT22;23001;45.952;12.676;2023-05-14T14:55:00;15.30;99.90
37086;DHT22;23001;45.952;12.676;2023-05-14T14:57:26;15.30;99.90
37086;DHT22;23001;45.952;12.676;2023-05-14T14:59:52;15.20;99.90
37086;DHT22;23001;45.952;12.676;2023-05-14T15:02:17;15.30;99.90
37086;DHT22;23001;45.952;12.676;2023-05-14T15:04:44;15.20;99.90
37086;DHT22;23001;45.952;12.676;2023-05-14T15:07:12;15.20;99.90
37086;DHT22;23001;45.952;12.676;2023-05-14T15:09:40;15.20;99.90
37086;DHT22;23001;45.952;12.676;2023-05-14T15:12:06;15.20;99.90
37086;DHT22;23001;45.952;12.676;2023-05-14T15:14:33;15.20;99.90
37086;DHT22;23001;45.952;12.676;2023-05-14T15:16:59;15.20;99.90
37086;DHT22;23001;45.952;12.676;2023-05-14T15:19:25;15.20;99.90
37086;DHT22;23001;45.952;12.676;2023-05-14T15:21:51;15.20;99.90
37086;DHT22;23001;45.952;12.676;2023-05-14T15:27:25;15.10;99.90
37086;DHT22;23001;45.952;12.676;2023-05-14T15:29:51;15.10;99.90
37086;DHT22;23001;45.952;12.676;2023-05-14T15:32:20;15.00;99.90
37086;DHT22;23001;45.952;12.676;2023-05-14T15:34:45;14.90;99.90
37086;DHT22;23001;45.952;12.676;2023-05-14T15:37:11;14.90;99.90
37086;DHT22;23001;45.952;12.676;2023-05-14T15:39:39;14.80;99.90
37086;DHT22;23001;45.952;12.676;2023-05-14T15:42:08;14.90;99.90
37086;DHT22;23001;45.952;12.676;2023-05-14T15:44:37;14.90;99.90
37086;DHT22;23001;45.952;12.676;2023-05-14T15:47:06;14.90;99.90
37086;DHT22;23001;45.952;12.676;2023-05-14T15:49:31;14.90;99.90
37086;DHT22;23001;45.952;12.676;2023-05-14T15:51:59;15.00;99.90
37086;DHT22;23001;45.952;12.676;2023-05-14T15:54:27;15.10;99.90
37086;DHT22;23001;45.952;12.676;2023-05-14T15:56:55;15.10;99.90
37086;DHT22;23001;45.952;12.676;2023-05-14T16:01:57;15.20;99.90
37086;DHT22;23001;45.952;12.676;2023-05-14T16:04:25;15.30;99.90
37086;DHT22;23001;45.952;12.676;2023-05-14T16:06:51;15.30;99.90
37086;DHT22;23001;45.952;12.676;2023-05-14T16:09:16;15.30;99.90
37086;DHT22;23001;45.952;12.676;2023-05-14T16:11:51;15.30;99.90
37086;DHT22;23001;45.952;12.676;2023-05-14T16:14:26;15.30;99.90
37086;DHT22;23001;45.952;12.676;2023-05-14T16:16:54;15.40;99.90
37086;DHT22;23001;45.952;12.676;2023-05-14T16:25:33;15.60;99.90
37086;DHT22;23001;45.952;12.676;2023-05-14T16:27:59;15.60;99.90
37086;DHT22;23001;45.952;12.676;2023-05-14T16:30:37;15.50;99.90
37086;DHT22;23001;45.952;12.676;2023-05-14T16:33:03;15.50;99.90
37086;DHT22;23001;45.952;12.676;2023-05-14T16:35:39;15.60;99.90
37086;DHT22;23001;45.952;12.676;2023-05-14T16:38:35;15.60;99.90
37086;DHT22;23001;45.952;12.676;2023-05-14T16:41:01;15.60;99.90
37086;DHT22;23001;45.952;12.676;2023-05-14T16:43:29;15.40;99.90
37086;DHT22;23001;45.952;12.676;2023-05-14T16:45:55;15.30;99.90
37086;DHT22;23001;45.952;12.676;2023-05-14T16:49:06;15.40;99.90
37086;DHT22;23001;45.952;12.676;2023-05-14T16:51:19;15.40;99.90
37086;DHT22;23001;45.952;12.676;2023-05-14T16:53:44;15.20;99.90
37086;DHT22;23001;45.952;12.676;2023-05-14T16:56:13;15.10;99.90
37086;DHT22;23001;45.952;12.676;2023-05-14T16:59:00;15.10;99.90
37086;DHT22;23001;45.952;12.676;2023-05-14T17:01:26;15.20;99.90
37086;DHT22;23001;45.952;12.676;2023-05-14T17:03:51;15.10;99.90
37086;DHT22;23001;45.952;12.676;2023-05-14T17:12:26;15.00;99.90
37086;DHT22;23001;45.952;12.676;2023-05-14T17:14:51;15.00;99.90
37086;DHT22;23001;45.952;12.676;2023-05-14T17:17:20;15.00;99.90
37086;DHT22;23001;45.952;12.676;2023-05-14T17:19:49;15.20;99.90
37086;DHT22;23001;45.952;12.676;2023-05-14T17:22:18;15.30;99.90
37086;DHT22;23001;45.952;12.676;2023-05-14T17:24:46;15.30;99.90
37086;DHT22;23001;45.952;12.676;2023-05-14T17:27:12;15.20;99.90
37086;DHT22;23001;45.952;12.676;2023-05-14T17:29:38;15.10;99.90
37086;DHT22;23001;45.952;12.676;2023-05-14T17:32:07;15.10;99.90
37086;DHT22;23001;45.952;12.676;2023-05-14T17:34:32;15.00;99.90
37086;DHT22;23001;45.952;12.676;2023-05-14T17:37:01;15.10;99.90
37086;DHT22;23001;45.952;12.676;2023-05-14T17:39:27;15.10;99.90
37086;DHT22;23001;45.952;12.676;2023-05-14T17:42:04;15.00;99.90
37086;DHT22;23001;45.952;12.676;2023-05-14T17:44:40;15.00;99.90
37086;DHT22;23001;45.952;12.676;2023-05-14T17:47:05;14.90;99.90
37086;DHT22;23001;45.952;12.676;2023-05-14T17:49:32;14.90;99.90
37086;DHT22;23001;45.952;12.676;2023-05-14T17:51:58;14.90;99.90
37086;DHT22;23001;45.952;12.676;2023-05-14T17:54:26;14.90;99.90
37086;DHT22;23001;45.952;12.676;2023-05-14T17:56:52;14.90;99.90
37086;DHT22;23001;45.952;12.676;2023-05-14T17:59:30;14.90;99.90
37086;DHT22;23001;45.952;12.676;2023-05-14T18:01:55;14.90;99.90
37086;DHT22;23001;45.952;12.676;2023-05-14T18:04:21;15.00;99.90
37086;DHT22;23001;45.952;12.676;2023-05-14T18:06:46;14.90;99.90
37086;DHT22;23001;45.952;12.676;2023-05-14T18:09:12;14.90;99.90
37086;DHT22;23001;45.952;12.676;2023-05-14T18:11:41;15.00;99.90
37086;DHT22;23001;45.952;12.676;2023-05-14T18:14:20;14.90;99.90
37086;DHT22;23001;45.952;12.676;2023-05-14T18:16:53;14.80;99.90
37086;DHT22;23001;45.952;12.676;2023-05-14T18:19:20;14.80;99.90
37086;DHT22;23001;45.952;12.676;2023-05-14T18:21:46;14.90;99.90
37086;DHT22;23001;45.952;12.676;2023-05-14T18:24:12;14.90;99.90
37086;DHT22;23001;45.952;12.676;2023-05-14T18:26:51;14.90;99.90
37086;DHT22;23001;45.952;12.676;2023-05-14T18:29:17;14.80;99.90
37086;DHT22;23001;45.952;12.676;2023-05-14T18:31:46;14.80;99.90
37086;DHT22;23001;45.952;12.676;2023-05-14T18:34:14;14.80;99.90
37086;DHT22;23001;45.952;12.676;2023-05-14T18:36:41;14.70;99.90
37086;DHT22;23001;45.952;12.676;2023-05-14T18:39:07;14.80;99.90
37086;DHT22;23001;45.952;12.676;2023-05-14T18:41:40;14.80;99.90
37086;DHT22;23001;45.952;12.676;2023-05-14T18:44:22;14.80;99.90
37086;DHT22;23001;45.952;12.676;2023-05-14T18:46:54;14.80;99.90
37086;DHT22;23001;45.952;12.676;2023-05-14T18:49:25;14.80;99.90
37086;DHT22;23001;45.952;12.676;2023-05-14T18:51:54;14.70;99.90
37086;DHT22;23001;45.952;12.676;2023-05-14T18:54:20;14.70;99.90
37086;DHT22;23001;45.952;12.676;2023-05-14T18:57:05;14.80;99.90
37086;DHT22;23001;45.952;12.676;2023-05-14T18:59:49;14.70;99.90
37086;DHT22;23001;45.952;12.676;2023-05-14T19:02:23;14.70;99.90
37086;DHT22;23001;45.952;12.676;2023-05-14T19:05:18;14.70;99.90
37086;DHT22;23001;45.952;12.676;2023-05-14T19:07:44;14.70;99.90
37086;DHT22;23001;45.952;12.676;2023-05-14T19:10:15;14.60;99.90
37086;DHT22;23001;45.952;12.676;2023-05-14T19:12:44;14.60;99.90
37086;DHT22;23001;45.952;12.676;2023-05-14T19:15:12;14.60;99.90
37086;DHT22;23001;45.952;12.676;2023-05-14T19:17:38;14.50;99.90
37086;DHT22;23001;45.952;12.676;2023-05-14T19:20:04;14.50;99.90
37086;DHT22;23001;45.952;12.676;2023-05-14T19:22:30;14.60;99.90
37086;DHT22;23001;45.952;12.676;2023-05-14T19:24:56;14.50;99.90
37086;DHT22;23001;45.952;12.676;2023-05-14T19:27:24;14.50;99.90
37086;DHT22;23001;45.952;12.676;2023-05-14T19:36:11;14.40;99.90
37086;DHT22;23001;45.952;12.676;2023-05-14T19:53:57;14.50;99.90
37086;DHT22;23001;45.952;12.676;2023-05-14T19:56:23;14.40;99.90